Time;durP1;ratioP1;P1;durP2;ratioP2;P2;SDS_P1;SDS_P2;PMS_P1;PMS_P2;Temp;Humidity;BMP_temperature;BMP_pressure;BME280_temperature;BME280_humidity;BME280_pressure;Samples;Min_cycle;Max_cycle;Signal;HPM_P1;HPM_P2
2023/11/16 00:02:19;;;;;;;;;;;;;;;9.95;100.00;101490.88;5035372;28;19917;-40
2023/11/16 00:04:44;;;;;;;;;;;;;;;9.98;100.00;101499.50;5017396;28;19920;-40
2023/11/16 00:07:10;;;;;;;;;;;;;;;9.97;100.00;101502.31;5016943;28;20291;-41
2023/11/16 00:09:36;;;;;;;;;;;;;;;10.01;100.00;101507.22;5035596;28;19978;-39
2023/11/16 00:12:02;;;;;;;;;;;;;;;9.99;100.00;101509.22;5036142;28;20385;-40
2023/11/16 00:14:27;;;;;;;;;;;;;;;10.03;100.00;101501.66;5020478;28;19913;-40
2023/11/16 00:16:54;;;;;;;;;;;;;;;10.05;100.00;101495.13;5036495;28;19956;-40
2023/11/16 00:19:23;;;;;;;;;;;;;;;10.12;100.00;101498.03;5036553;28;20269;-40
2023/11/16 00:21:48;;;;;;;;;;;;;;;10.15;100.00;101497.69;5035667;28;20002;-40
2023/11/16 00:24:13;;;;;;;;;;;;;;;10.17;100.00;101501.06;5016047;28;20068;-39
2023/11/16 00:26:39;;;;;;;;;;;;;;;10.12;100.00;101498.03;5016478;28;19925;-38
2023/11/16 00:29:06;;;;;;;;;;;;;;;10.13;100.00;101491.63;5005652;28;19922;-40
2023/11/16 00:31:32;;;;;;;;;;;;;;;10.16;100.00;101488.59;5020258;28;20016;-41
2023/11/16 00:33:57;;;;;;;;;;;;;;;10.16;100.00;101485.06;5027590;28;20283;-40
2023/11/16 00:36:23;;;;;;;;;;;;;;;10.20;100.00;101489.97;5020375;28;19920;-41
2023/11/16 00:38:49;;;;;;;;;;;;;;;10.22;100.00;101482.59;5017094;28;19924;-40
2023/11/16 00:41:15;;;;;;;;;;;;;;;10.24;100.00;101490.47;5027554;28;20346;-41
2023/11/16 00:43:41;;;;;;;;;;;;;;;10.29;100.00;101502.50;5026207;28;19918;-41
2023/11/16 00:46:08;;;;;;;;;;;;;;;10.28;100.00;101495.41;5020401;28;19964;-41
2023/11/16 00:48:34;;;;;;;;;;;;;;;10.27;100.00;101509.88;4999257;28;19968;-41
2023/11/16 00:50:59;;;;;;;;;;;;;;;10.23;100.00;101499.56;5022893;28;20303;-41
2023/11/16 00:53:25;;;;;;;;;;;;;;;10.13;100.00;101509.63;5016607;28;20022;-40
2023/11/16 00:55:50;;;;;;;;;;;;;;;10.11;100.00;101512.47;5016215;28;19972;-41
2023/11/16 00:58:16;;;;;;;;;;;;;;;10.06;100.00;101510.28;5016301;28;19918;-39
2023/11/16 01:00:42;;;;;;;;;;;;;;;9.99;100.00;101519.16;5016085;28;19918;-40
2023/11/16 01:03:07;;;;;;;;;;;;;;;9.89;100.00;101509.34;5012012;28;19979;-40
2023/11/16 01:05:32;;;;;;;;;;;;;;;9.89;100.00;101514.72;4996904;28;20796;-41
2023/11/16 01:07:58;;;;;;;;;;;;;;;9.91;100.00;101506.50;5014978;28;20438;-41
2023/11/16 01:10:29;;;;;;;;;;;;;;;9.86;100.00;101516.91;5014809;28;19913;-41
2023/11/16 01:12:55;;;;;;;;;;;;;;;9.85;100.00;101523.28;5015648;28;19949;-40
2023/11/16 01:15:23;;;;;;;;;;;;;;;9.82;100.00;101526.28;5008856;28;20287;-40
2023/11/16 01:17:49;;;;;;;;;;;;;;;9.73;100.00;101524.56;4995815;28;19917;-43
2023/11/16 01:20:22;;;;;;;;;;;;;;;9.64;100.00;101529.06;4999529;28;19925;-43
2023/11/16 01:23:01;;;;;;;;;;;;;;;9.56;100.00;101526.31;5021609;28;19955;-43
2023/11/16 01:25:26;;;;;;;;;;;;;;;9.50;100.00;101525.09;5031853;28;19933;-44
2023/11/16 01:27:57;;;;;;;;;;;;;;;9.46;100.00;101521.03;5034545;28;19979;-45
2023/11/16 01:30:23;;;;;;;;;;;;;;;9.43;100.00;101530.25;5035161;28;19913;-43
2023/11/16 01:32:48;;;;;;;;;;;;;;;9.39;100.00;101530.72;5021988;28;19913;-43
2023/11/16 01:35:14;;;;;;;;;;;;;;;9.36;100.00;101542.63;5023928;28;19924;-43
2023/11/16 01:37:39;;;;;;;;;;;;;;;9.32;100.00;101546.66;5034506;28;20360;-41
2023/11/16 01:40:05;;;;;;;;;;;;;;;9.34;100.00;101543.78;5047113;28;19917;-40
2023/11/16 01:42:30;;;;;;;;;;;;;;;9.33;100.00;101550.19;5034743;28;19925;-41
2023/11/16 01:44:55;;;;;;;;;;;;;;;9.33;100.00;101551.00;5034054;28;19917;-39
2023/11/16 01:47:20;;;;;;;;;;;;;;;9.33;100.00;101550.19;5034296;28;19924;-41
2023/11/16 01:49:46;;;;;;;;;;;;;;;9.35;100.00;101554.38;5037064;28;19917;-41
2023/11/16 01:52:13;;;;;;;;;;;;;;;9.33;100.00;101555.53;5030110;28;20410;-41
2023/11/16 01:54:39;;;;;;;;;;;;;;;9.33;100.00;101561.75;5038063;28;19917;-40
2023/11/16 01:57:04;;;;;;;;;;;;;;;9.32;100.00;101548.47;5032695;28;19924;-40
2023/11/16 01:59:29;;;;;;;;;;;;;;;9.29;100.00;101555.00;5035234;28;19916;-39
2023/11/16 02:01:55;;;;;;;;;;;;;;;9.30;100.00;101553.19;5034885;28;19986;-40
2023/11/16 02:04:22;;;;;;;;;;;;;;;9.29;100.00;101557.69;5031592;28;19923;-39
2023/11/16 02:06:47;;;;;;;;;;;;;;;9.32;100.00;101569.97;5032868;28;20287;-40
2023/11/16 02:09:12;;;;;;;;;;;;;;;9.35;100.00;101564.31;5033797;28;19917;-41
2023/11/16 02:11:38;;;;;;;;;;;;;;;9.33;100.00;101560.91;5050577;28;19987;-39
2023/11/16 02:14:04;;;;;;;;;;;;;;;9.31;100.00;101563.75;5034362;28;19917;-40
2023/11/16 02:16:29;;;;;;;;;;;;;;;9.35;100.00;101558.94;5035276;28;19943;-38
2023/11/16 02:18:54;;;;;;;;;;;;;;;9.39;100.00;101562.97;5037561;28;20051;-41
2023/11/16 02:21:19;;;;;;;;;;;;;;;9.38;100.00;101564.81;5041841;28;20027;-39
2023/11/16 02:23:47;;;;;;;;;;;;;;;9.37;100.00;101557.78;5014290;28;19991;-41
2023/11/16 02:26:13;;;;;;;;;;;;;;;9.36;100.00;101547.16;5006560;28;20428;-40
2023/11/16 02:28:38;;;;;;;;;;;;;;;9.38;100.00;101553.22;5021185;28;19960;-39
2023/11/16 02:31:03;;;;;;;;;;;;;;;9.37;100.00;101557.78;5027266;28;19924;-39
2023/11/16 02:33:28;;;;;;;;;;;;;;;9.36;100.00;101555.22;5017663;28;19918;-40
2023/11/16 02:35:54;;;;;;;;;;;;;;;9.35;100.00;101551.69;5026712;28;19947;-40
2023/11/16 02:38:19;;;;;;;;;;;;;;;9.35;100.00;101558.94;5015546;28;20009;-40
2023/11/16 02:40:45;;;;;;;;;;;;;;;9.31;100.00;101547.63;5029378;28;19967;-41
2023/11/16 02:43:11;;;;;;;;;;;;;;;9.31;100.00;101553.00;5025431;28;19917;-38
2023/11/16 02:45:36;;;;;;;;;;;;;;;9.33;100.00;101555.53;5010347;28;20023;-41
2023/11/16 02:48:02;;;;;;;;;;;;;;;9.34;100.00;101552.69;5020755;28;20392;-41
2023/11/16 02:50:27;;;;;;;;;;;;;;;9.38;100.00;101546.00;5023633;28;20435;-40
2023/11/16 02:52:52;;;;;;;;;;;;;;;9.41;100.00;101545.69;5039931;28;19917;-40
2023/11/16 02:55:20;;;;;;;;;;;;;;;9.36;100.00;101544.47;5035581;28;19917;-41
2023/11/16 02:57:45;;;;;;;;;;;;;;;9.31;100.00;101536.88;5010334;28;20323;-40
2023/11/16 03:00:12;;;;;;;;;;;;;;;9.28;100.00;101536.38;5017393;28;19917;-40
2023/11/16 03:02:37;;;;;;;;;;;;;;;9.26;100.00;101544.56;5007593;28;19917;-40
2023/11/16 03:05:06;;;;;;;;;;;;;;;9.27;100.00;101545.41;5010839;28;20019;-40
2023/11/16 03:07:32;;;;;;;;;;;;;;;9.25;100.00;101542.91;5023445;28;19918;-39
2023/11/16 03:09:57;;;;;;;;;;;;;;;9.31;100.00;101541.41;5026116;28;19920;-40
2023/11/16 03:12:23;;;;;;;;;;;;;;;9.29;100.00;101538.88;5029442;28;19914;-40
2023/11/16 03:14:49;;;;;;;;;;;;;;;9.22;100.00;101532.47;5013078;28;19924;-39
2023/11/16 03:17:16;;;;;;;;;;;;;;;9.22;100.00;101532.47;5002602;28;19917;-40
2023/11/16 03:19:42;;;;;;;;;;;;;;;9.18;100.00;101529.22;4994479;28;20399;-40
2023/11/16 03:22:07;;;;;;;;;;;;;;;9.15;100.00;101526.84;4995514;28;19913;-41
2023/11/16 03:24:33;;;;;;;;;;;;;;;9.12;100.00;101524.50;5013910;28;19955;-40
2023/11/16 03:26:59;;;;;;;;;;;;;;;9.10;100.00;101525.66;5013436;28;19921;-41
2023/11/16 03:29:25;;;;;;;;;;;;;;;9.04;100.00;101518.22;5013119;28;19914;-39
2023/11/16 03:31:50;;;;;;;;;;;;;;;9.00;100.00;101521.22;5004944;28;20434;-41
2023/11/16 03:34:16;;;;;;;;;;;;;;;8.98;100.00;101520.53;5013484;28;19969;-40
2023/11/16 03:36:42;;;;;;;;;;;;;;;8.94;100.00;101529.03;5009304;28;19953;-40
2023/11/16 03:39:08;;;;;;;;;;;;;;;8.90;100.00;101520.47;5013807;28;19936;-40
2023/11/16 03:41:33;;;;;;;;;;;;;;;8.89;100.00;101529.50;5013690;28;20384;-39
2023/11/16 03:43:58;;;;;;;;;;;;;;;8.90;100.00;101525.81;5013016;28;20386;-40
2023/11/16 03:46:24;;;;;;;;;;;;;;;8.90;100.00;101517.78;5013444;28;19917;-40
2023/11/16 03:48:49;;;;;;;;;;;;;;;8.92;100.00;101520.28;5013330;28;19917;-40
2023/11/16 03:51:16;;;;;;;;;;;;;;;8.91;100.00;101516.75;5013477;28;20379;-40
2023/11/16 03:53:41;;;;;;;;;;;;;;;8.92;100.00;101518.44;5013459;28;20008;-40
2023/11/16 03:56:07;;;;;;;;;;;;;;;8.95;100.00;101525.34;5008161;28;20008;-41
2023/11/16 03:58:33;;;;;;;;;;;;;;;8.96;100.00;101517.16;5013788;28;19968;-40
2023/11/16 04:00:58;;;;;;;;;;;;;;;8.98;100.00;101512.47;5013149;28;19913;-40
2023/11/16 04:03:23;;;;;;;;;;;;;;;9.00;100.00;101512.28;5013571;28;19960;-40
2023/11/16 04:05:48;;;;;;;;;;;;;;;8.98;100.00;101517.84;5013438;28;19917;-40
2023/11/16 04:08:14;;;;;;;;;;;;;;;8.96;100.00;101514.47;5014132;28;19948;-40
2023/11/16 04:10:39;;;;;;;;;;;;;;;8.95;100.00;101519.97;5030615;28;19924;-40
2023/11/16 04:13:05;;;;;;;;;;;;;;;8.96;100.00;101519.00;5023092;28;20260;-41
2023/11/16 04:15:30;;;;;;;;;;;;;;;8.93;100.00;101519.31;5022340;28;19918;-40
2023/11/16 04:17:55;;;;;;;;;;;;;;;8.97;100.00;101523.34;5019127;28;19921;-40
2023/11/16 04:20:23;;;;;;;;;;;;;;;8.99;100.00;101516.00;5025858;28;19917;-41
2023/11/16 04:22:48;;;;;;;;;;;;;;;9.01;100.00;101509.47;5023548;28;19917;-41
2023/11/16 04:25:25;;;;;;;;;;;;;;;8.99;100.00;101498.03;5025765;28;20024;-41
2023/11/16 04:27:50;;;;;;;;;;;;;;;9.00;100.00;101493.50;5016501;28;19917;-40
2023/11/16 04:30:20;;;;;;;;;;;;;;;8.98;100.00;101509.78;5017715;28;20261;-41
2023/11/16 04:32:45;;;;;;;;;;;;;;;8.99;100.00;101511.47;5004085;28;19913;-41
2023/11/16 04:35:13;;;;;;;;;;;;;;;9.01;100.00;101512.16;5022430;28;20360;-40
2023/11/16 04:37:38;;;;;;;;;;;;;;;8.97;100.00;101508.09;5006487;28;19918;-41
2023/11/16 04:40:09;;;;;;;;;;;;;;;8.97;100.00;101509.94;4976628;28;20027;-39
2023/11/16 04:42:34;;;;;;;;;;;;;;;8.97;100.00;101505.41;4993721;28;20000;-40
2023/11/16 04:45:03;;;;;;;;;;;;;;;8.99;100.00;101507.94;4997885;28;19953;-40
2023/11/16 04:47:29;;;;;;;;;;;;;;;8.98;100.00;101504.41;5009048;28;19917;-41
2023/11/16 04:49:55;;;;;;;;;;;;;;;8.96;100.00;101501.03;5017547;28;19940;-41
2023/11/16 04:52:20;;;;;;;;;;;;;;;8.95;100.00;101494.00;4999007;28;19918;-39
2023/11/16 04:54:45;;;;;;;;;;;;;;;8.98;100.00;101492.84;4997663;28;19917;-40
2023/11/16 04:57:10;;;;;;;;;;;;;;;8.99;100.00;101495.34;4998587;28;19917;-40
2023/11/16 04:59:35;;;;;;;;;;;;;;;8.96;100.00;101494.84;5010924;28;19963;-40
2023/11/16 05:02:01;;;;;;;;;;;;;;;8.94;100.00;101502.19;5009276;28;19925;-40
2023/11/16 05:04:26;;;;;;;;;;;;;;;8.91;100.00;101497.13;5016619;28;19944;-39
2023/11/16 05:06:51;;;;;;;;;;;;;;;8.95;100.00;101499.38;5012664;28;19917;-40
2023/11/16 05:09:16;;;;;;;;;;;;;;;8.97;100.00;101502.72;4996704;28;19914;-41
2023/11/16 05:11:41;;;;;;;;;;;;;;;8.96;100.00;101501.03;4996835;28;19960;-40
2023/11/16 05:14:07;;;;;;;;;;;;;;;9.01;100.00;101512.16;4996242;28;19914;-40
2023/11/16 05:16:32;;;;;;;;;;;;;;;9.04;100.00;101502.09;4996781;28;19921;-40
2023/11/16 05:18:57;;;;;;;;;;;;;;;9.01;100.00;101493.38;5015489;28;20378;-40
2023/11/16 05:21:22;;;;;;;;;;;;;;;8.99;100.00;101489.16;5015480;28;20423;-40
2023/11/16 05:23:48;;;;;;;;;;;;;;;9.01;100.00;101485.31;5015675;28;19917;-40
2023/11/16 05:26:13;;;;;;;;;;;;;;;8.98;100.00;101488.31;5000113;28;19925;-40
2023/11/16 05:28:38;;;;;;;;;;;;;;;8.97;100.00;101489.28;5012366;28;20280;-41
2023/11/16 05:31:04;;;;;;;;;;;;;;;8.97;100.00;101481.22;5015231;28;20350;-39
2023/11/16 05:33:30;;;;;;;;;;;;;;;8.94;100.00;101492.28;5015853;28;20277;-41
2023/11/16 05:35:55;;;;;;;;;;;;;;;8.97;100.00;101483.91;5010413;28;19957;-41
2023/11/16 05:38:20;;;;;;;;;;;;;;;8.99;100.00;101489.97;5001245;28;19952;-40
2023/11/16 05:40:46;;;;;;;;;;;;;;;8.95;100.00;101488.63;5004251;28;20004;-39
2023/11/16 05:43:11;;;;;;;;;;;;;;;8.92;100.00;101483.53;5016542;28;19918;-41
2023/11/16 05:45:39;;;;;;;;;;;;;;;8.89;100.00;101478.50;5017551;28;19925;-42
2023/11/16 05:48:07;;;;;;;;;;;;;;;8.91;100.00;101478.34;5016176;28;19917;-41
2023/11/16 05:50:33;;;;;;;;;;;;;;;8.96;100.00;101473.34;5018345;28;20403;-40
2023/11/16 05:52:58;;;;;;;;;;;;;;;8.98;100.00;101461.47;5023851;28;19929;-40
2023/11/16 05:55:25;;;;;;;;;;;;;;;8.98;100.00;101466.00;5023451;28;19923;-41
2023/11/16 05:57:51;;;;;;;;;;;;;;;8.98;100.00;101456.09;5036109;28;19913;-39
2023/11/16 06:00:16;;;;;;;;;;;;;;;8.99;100.00;101447.03;5030457;28;20382;-41
2023/11/16 06:02:41;;;;;;;;;;;;;;;8.98;100.00;101448.03;5020020;28;19913;-41
2023/11/16 06:05:08;;;;;;;;;;;;;;;8.96;100.00;101447.34;5016131;28;20453;-40
2023/11/16 06:07:34;;;;;;;;;;;;;;;8.92;100.00;101442.44;5018739;28;19913;-41
2023/11/16 06:10:00;;;;;;;;;;;;;;;8.92;100.00;101432.53;5024359;28;19928;-39
2023/11/16 06:12:25;;;;;;;;;;;;;;;8.92;100.00;101434.38;5012573;28;19918;-38
2023/11/16 06:14:56;;;;;;;;;;;;;;;8.94;100.00;101435.06;4991494;28;19918;-40
2023/11/16 06:17:21;;;;;;;;;;;;;;;8.94;100.00;101433.22;5021671;28;19923;-37
2023/11/16 06:19:47;;;;;;;;;;;;;;;8.95;100.00;101420.63;5031814;28;19968;-40
2023/11/16 06:22:12;;;;;;;;;;;;;;;8.97;100.00;101426.69;5025212;28;19952;-37
2023/11/16 06:24:37;;;;;;;;;;;;;;;8.91;100.00;101425.50;5015122;28;20276;-39
2023/11/16 06:27:04;;;;;;;;;;;;;;;8.90;100.00;101415.78;5015661;28;19961;-39
2023/11/16 06:29:29;;;;;;;;;;;;;;;8.83;100.00;101409.34;5015836;28;20020;-39
2023/11/16 06:31:56;;;;;;;;;;;;;;;8.80;100.00;101409.66;5018403;28;20342;-41
2023/11/16 06:34:21;;;;;;;;;;;;;;;8.81;100.00;101411.31;5034039;28;19966;-40
2023/11/16 06:36:47;;;;;;;;;;;;;;;8.82;100.00;101393.38;5033602;28;20008;-40
2023/11/16 06:39:13;;;;;;;;;;;;;;;8.87;100.00;101399.13;5034281;28;19913;-40
2023/11/16 06:41:38;;;;;;;;;;;;;;;8.87;100.00;101393.75;5019967;28;20370;-40
2023/11/16 06:44:05;;;;;;;;;;;;;;;8.88;100.00;101398.97;5033766;28;20139;-41
2023/11/16 06:46:32;;;;;;;;;;;;;;;8.92;100.00;101400.31;5034892;28;19959;-41
2023/11/16 06:48:57;;;;;;;;;;;;;;;8.93;100.00;101393.97;5034806;28;20003;-40
2023/11/16 06:51:22;;;;;;;;;;;;;;;9.00;100.00;101403.09;5022834;28;19948;-41
2023/11/16 06:53:48;;;;;;;;;;;;;;;9.01;100.00;101396.72;5038046;28;19931;-41
2023/11/16 06:56:14;;;;;;;;;;;;;;;9.02;100.00;101387.63;5023760;28;20338;-40
2023/11/16 06:58:40;;;;;;;;;;;;;;;9.04;100.00;101395.56;5035534;28;19992;-41
2023/11/16 07:01:06;;;;;;;;;;;;;;;9.00;100.00;101394.16;5031362;28;19917;-41
2023/11/16 07:03:32;;;;;;;;;;;;;;;8.93;100.00;101387.78;5022813;28;20375;-41
2023/11/16 07:05:57;;;;;;;;;;;;;;;8.92;100.00;101392.28;5017242;28;19913;-39
2023/11/16 07:08:22;;;;;;;;;;;;;;;8.96;100.00;101376.72;5030155;28;19913;-40
2023/11/16 07:10:47;;;;;;;;;;;;;;;8.91;100.00;101385.22;5014080;28;19996;-39
2023/11/16 07:13:16;;;;;;;;;;;;;;;8.91;100.00;101379.84;5014590;28;20272;-40
2023/11/16 07:15:45;;;;;;;;;;;;;;;8.91;100.00;101376.34;5014133;28;19913;-39
2023/11/16 07:18:10;;;;;;;;;;;;;;;8.87;100.00;101383.84;5014432;28;20018;-41
2023/11/16 07:20:35;;;;;;;;;;;;;;;8.88;100.00;101380.19;5014564;28;19948;-41
2023/11/16 07:23:02;;;;;;;;;;;;;;;8.91;100.00;101379.03;5014059;28;19917;-40
2023/11/16 07:25:28;;;;;;;;;;;;;;;8.97;100.00;101383.75;5016326;28;19921;-41
2023/11/16 07:27:53;;;;;;;;;;;;;;;8.96;100.00;101377.53;5033431;28;19917;-40
2023/11/16 07:30:19;;;;;;;;;;;;;;;8.96;100.00;101366.81;5036329;28;19913;-41
2023/11/16 07:32:44;;;;;;;;;;;;;;;8.92;100.00;101373.47;5036941;28;20356;-41
2023/11/16 07:35:16;;;;;;;;;;;;;;;8.94;100.00;101373.34;5041281;28;19959;-41
2023/11/16 07:37:44;;;;;;;;;;;;;;;9.04;100.00;101367.88;5041845;28;19979;-41
2023/11/16 07:40:13;;;;;;;;;;;;;;;8.96;100.00;101374.84;5040732;28;19948;-40
2023/11/16 07:42:41;;;;;;;;;;;;;;;8.94;100.00;101371.47;5034130;28;20007;-41
2023/11/16 07:45:09;;;;;;;;;;;;;;;8.94;100.00;101373.34;5033782;28;19913;-40
2023/11/16 07:47:34;;;;;;;;;;;;;;;8.96;100.00;101377.53;5033684;28;19920;-41
2023/11/16 07:50:00;;;;;;;;;;;;;;;8.98;100.00;101380.91;5033063;28;20310;-41
2023/11/16 07:52:26;;;;;;;;;;;;;;;8.96;100.00;101361.44;5033580;28;20402;-40
2023/11/16 07:54:53;;;;;;;;;;;;;;;8.99;100.00;101361.13;5033394;28;19978;-40
2023/11/16 07:57:22;;;;;;;;;;;;;;;8.99;100.00;101349.53;5033162;28;19920;-40
2023/11/16 07:59:47;;;;;;;;;;;;;;;8.99;100.00;101347.69;5033699;28;19913;-39
2023/11/16 08:02:16;;;;;;;;;;;;;;;8.97;100.00;101338.94;5033720;28;20000;-40
2023/11/16 08:04:43;;;;;;;;;;;;;;;8.98;100.00;101337.13;5033362;28;19959;-41
2023/11/16 08:07:09;;;;;;;;;;;;;;;8.95;100.00;101332.91;5035955;28;19917;-41
2023/11/16 08:09:35;;;;;;;;;;;;;;;8.95;100.00;101327.56;5037621;28;20329;-40
2023/11/16 08:12:03;;;;;;;;;;;;;;;8.98;100.00;101327.22;5036935;28;19913;-40
2023/11/16 08:14:31;;;;;;;;;;;;;;;9.01;100.00;101321.53;5036192;28;19913;-39
2023/11/16 08:16:58;;;;;;;;;;;;;;;9.04;100.00;101322.22;5034683;28;20319;-40
2023/11/16 08:19:25;;;;;;;;;;;;;;;8.99;100.00;101317.31;5036743;28;19959;-40
2023/11/16 08:21:55;;;;;;;;;;;;;;;9.00;100.00;101314.50;5039383;28;19936;-41
2023/11/16 08:24:21;;;;;;;;;;;;;;;9.05;100.00;101315.84;5042897;28;19979;-40
2023/11/16 08:26:47;;;;;;;;;;;;;;;8.93;100.00;101316.13;5041707;28;19917;-41
2023/11/16 08:29:12;;;;;;;;;;;;;;;8.97;100.00;101314.78;5028710;28;19920;-40
2023/11/16 08:31:38;;;;;;;;;;;;;;;9.01;100.00;101310.78;5046533;28;19913;-40
2023/11/16 08:34:04;;;;;;;;;;;;;;;9.04;100.00;101315.00;5043317;28;19920;-38
2023/11/16 08:36:29;;;;;;;;;;;;;;;9.12;100.00;101315.03;5039199;28;19920;-40
2023/11/16 08:38:55;;;;;;;;;;;;;;;9.13;100.00;101321.25;5036077;28;20356;-38
2023/11/16 08:41:22;;;;;;;;;;;;;;;9.21;100.00;101321.28;5035702;28;19913;-40
2023/11/16 08:43:50;;;;;;;;;;;;;;;9.20;100.00;101322.28;5035923;28;19920;-40
2023/11/16 08:46:20;;;;;;;;;;;;;;;9.15;100.00;101321.94;5035885;28;20424;-40
2023/11/16 08:48:46;;;;;;;;;;;;;;;9.11;100.00;101315.19;5035805;28;19991;-40
2023/11/16 08:51:15;;;;;;;;;;;;;;;9.12;100.00;101311.50;5018947;28;20359;-40
2023/11/16 08:53:42;;;;;;;;;;;;;;;9.18;100.00;101310.84;5037662;28;19913;-41
2023/11/16 08:56:07;;;;;;;;;;;;;;;9.21;100.00;101315.91;5035836;28;19916;-40
2023/11/16 08:58:36;;;;;;;;;;;;;;;9.22;100.00;101307.69;5035690;28;20287;-40
2023/11/16 09:01:03;;;;;;;;;;;;;;;9.19;100.00;101313.41;5035020;28;19909;-40
2023/11/16 09:03:28;;;;;;;;;;;;;;;9.10;100.00;101305.47;5036005;28;19913;-40
2023/11/16 09:05:54;;;;;;;;;;;;;;;9.08;100.00;101304.78;5035287;28;20381;-40
2023/11/16 09:08:19;;;;;;;;;;;;;;;9.08;100.00;101302.09;5035616;28;20391;-38
2023/11/16 09:10:46;;;;;;;;;;;;;;;9.12;100.00;101301.63;5035252;28;19963;-41
2023/11/16 09:13:12;;;;;;;;;;;;;;;9.13;100.00;101307.81;5035353;28;20256;-40
2023/11/16 09:15:38;;;;;;;;;;;;;;;9.11;100.00;101310.69;5034897;28;19920;-40
2023/11/16 09:18:04;;;;;;;;;;;;;;;9.08;100.00;101310.13;5034593;28;19920;-40
2023/11/16 09:20:30;;;;;;;;;;;;;;;9.06;100.00;101306.78;5035712;28;19936;-40
2023/11/16 09:22:57;;;;;;;;;;;;;;;9.11;100.00;101309.81;5035724;28;20287;-41
2023/11/16 09:25:24;;;;;;;;;;;;;;;9.11;100.00;101312.50;5035780;28;19956;-39
2023/11/16 09:27:56;;;;;;;;;;;;;;;9.03;100.00;101310.66;5035930;28;19936;-41
2023/11/16 09:30:23;;;;;;;;;;;;;;;9.13;100.00;101311.34;5043811;28;19948;-41
2023/11/16 09:32:50;;;;;;;;;;;;;;;9.08;100.00;101310.13;5045372;28;19913;-40
2023/11/16 09:35:16;;;;;;;;;;;;;;;9.16;100.00;101299.44;5045784;28;19964;-41
2023/11/16 09:37:47;;;;;;;;;;;;;;;9.18;100.00;101295.59;5043326;28;19917;-39
2023/11/16 09:40:19;;;;;;;;;;;;;;;9.23;100.00;101287.06;5037218;28;19913;-42
2023/11/16 09:42:44;;;;;;;;;;;;;;;9.14;100.00;101288.03;5002410;28;19913;-40
2023/11/16 09:45:09;;;;;;;;;;;;;;;9.17;100.00;101293.91;5035363;28;19936;-40
2023/11/16 09:47:39;;;;;;;;;;;;;;;9.22;100.00;101296.97;5035698;28;19964;-38
2023/11/16 09:50:08;;;;;;;;;;;;;;;9.23;100.00;101300.47;5035356;28;20006;-39
2023/11/16 09:52:38;;;;;;;;;;;;;;;9.20;100.00;101290.06;5035325;28;19913;-39
2023/11/16 09:55:06;;;;;;;;;;;;;;;9.21;100.00;101289.88;5034982;28;19913;-40
2023/11/16 09:57:33;;;;;;;;;;;;;;;9.23;100.00;101304.00;5017434;28;20375;-40
2023/11/16 10:00:02;;;;;;;;;;;;;;;9.12;100.00;101295.41;5035099;28;19913;-40
2023/11/16 10:02:27;;;;;;;;;;;;;;;9.14;100.00;101294.25;5035005;28;20279;-40
2023/11/16 10:04:53;;;;;;;;;;;;;;;9.15;100.00;101287.03;5017307;28;19913;-38
2023/11/16 10:07:25;;;;;;;;;;;;;;;9.27;100.00;101283.06;5034761;28;19913;-40
2023/11/16 10:09:53;;;;;;;;;;;;;;;9.25;100.00;101279.69;5034942;28;19947;-40
2023/11/16 10:12:18;;;;;;;;;;;;;;;9.16;100.00;101275.25;5034239;28;20414;-40
2023/11/16 10:14:52;;;;;;;;;;;;;;;9.12;100.00;101268.56;5033996;28;19913;-40
2023/11/16 10:17:21;;;;;;;;;;;;;;;9.16;100.00;101268.06;5034090;28;20363;-40
2023/11/16 10:19:50;;;;;;;;;;;;;;;8.99;100.00;101264.47;5034237;28;19913;-40
2023/11/16 10:22:15;;;;;;;;;;;;;;;8.99;100.00;101259.09;5033270;28;19917;-39
2023/11/16 10:24:41;;;;;;;;;;;;;;;8.89;100.00;101257.53;5016885;28;19920;-40
2023/11/16 10:27:06;;;;;;;;;;;;;;;8.89;100.00;101258.38;5034528;28;19912;-40
2023/11/16 10:29:31;;;;;;;;;;;;;;;8.83;100.00;101253.66;5034251;28;19936;-40
2023/11/16 10:31:56;;;;;;;;;;;;;;;8.91;100.00;101253.69;5034293;28;19955;-40
2023/11/16 10:34:24;;;;;;;;;;;;;;;8.90;100.00;101246.66;5036293;28;19913;-40
2023/11/16 10:36:50;;;;;;;;;;;;;;;8.94;100.00;101245.31;5036218;28;19913;-40
2023/11/16 10:39:15;;;;;;;;;;;;;;;8.96;100.00;101247.84;5036503;28;19940;-40
2023/11/16 10:41:40;;;;;;;;;;;;;;;8.89;100.00;101238.75;5016761;28;19919;-40
2023/11/16 10:44:06;;;;;;;;;;;;;;;8.88;100.00;101235.22;5016388;28;19909;-39
2023/11/16 10:46:31;;;;;;;;;;;;;;;8.93;100.00;101235.59;5016061;28;20019;-40
2023/11/16 10:48:56;;;;;;;;;;;;;;;9.02;100.00;101221.19;5020384;28;19909;-40
2023/11/16 10:51:22;;;;;;;;;;;;;;;9.11;100.00;101221.19;5036366;28;19967;-40
2023/11/16 10:53:48;;;;;;;;;;;;;;;8.99;100.00;101226.88;5034480;28;19971;-40
2023/11/16 10:56:13;;;;;;;;;;;;;;;8.94;100.00;101212.25;5016151;28;19972;-40
2023/11/16 10:58:39;;;;;;;;;;;;;;;8.93;100.00;101208.75;5016182;28;19913;-40
2023/11/16 11:01:09;;;;;;;;;;;;;;;8.97;100.00;101201.19;5033358;28;20006;-40
2023/11/16 11:03:35;;;;;;;;;;;;;;;9.01;100.00;101192.66;5016647;28;19913;-40
2023/11/16 11:06:00;;;;;;;;;;;;;;;9.02;100.00;101188.13;5016833;28;19913;-40
2023/11/16 11:08:36;;;;;;;;;;;;;;;8.90;100.00;101184.91;5036922;28;19962;-39
2023/11/16 11:11:03;;;;;;;;;;;;;;;8.93;100.00;101181.06;5040477;28;19913;-40
2023/11/16 11:13:33;;;;;;;;;;;;;;;8.87;100.00;101173.66;5040505;28;19909;-41
2023/11/16 11:16:07;;;;;;;;;;;;;;;8.90;100.00;101160.75;5039574;28;19955;-40
2023/11/16 11:18:32;;;;;;;;;;;;;;;8.93;100.00;101157.75;5036932;28;19977;-41
2023/11/16 11:21:04;;;;;;;;;;;;;;;8.98;100.00;101158.09;5017687;28;20355;-41
2023/11/16 11:23:29;;;;;;;;;;;;;;;8.99;100.00;101161.63;5033595;28;19917;-40
2023/11/16 11:26:03;;;;;;;;;;;;;;;9.08;100.00;101159.78;5033881;28;20386;-40
2023/11/16 11:28:29;;;;;;;;;;;;;;;9.13;100.00;101157.44;5030045;28;19925;-41
2023/11/16 11:30:55;;;;;;;;;;;;;;;9.13;100.00;101135.97;5021042;28;19925;-41
2023/11/16 11:33:47;;;;;;;;;;;;;;;9.26;100.00;101132.78;5001505;28;19963;-38
2023/11/16 11:36:16;;;;;;;;;;;;;;;9.27;100.00;101132.66;4992173;28;20292;-41
2023/11/16 11:38:46;;;;;;;;;;;;;;;9.29;100.00;101130.59;5025527;28;19913;-40
2023/11/16 11:41:14;;;;;;;;;;;;;;;9.19;100.00;101120.03;5033000;28;20337;-40
2023/11/16 11:43:40;;;;;;;;;;;;;;;9.24;100.00;101124.88;5031912;28;19913;-40
2023/11/16 11:46:09;;;;;;;;;;;;;;;9.31;100.00;101117.84;5025297;28;19917;-39
2023/11/16 11:48:38;;;;;;;;;;;;;;;9.31;100.00;101108.97;5001805;28;19914;-40
2023/11/16 11:51:04;;;;;;;;;;;;;;;9.22;100.00;101092.84;5013093;28;19913;-40
2023/11/16 11:53:32;;;;;;;;;;;;;;;9.20;100.00;101094.84;5014859;28;19936;-41
2023/11/16 11:55:57;;;;;;;;;;;;;;;9.24;100.00;101089.97;5025936;28;19913;-42
2023/11/16 11:58:24;;;;;;;;;;;;;;;9.28;100.00;101083.28;5019635;28;20295;-39
2023/11/16 12:00:50;;;;;;;;;;;;;;;9.29;100.00;101062.63;5029204;28;19917;-39
2023/11/16 12:03:16;;;;;;;;;;;;;;;9.28;100.00;101063.66;5016937;28;20352;-41
2023/11/16 12:05:42;;;;;;;;;;;;;;;9.29;100.00;101060.78;5005004;28;20372;-40
2023/11/16 12:08:07;;;;;;;;;;;;;;;9.24;100.00;101068.50;5037512;28;19940;-41
2023/11/16 12:10:33;;;;;;;;;;;;;;;9.15;100.00;101059.59;5037138;28;19940;-40
2023/11/16 12:12:58;;;;;;;;;;;;;;;9.17;100.00;101065.66;5026584;28;19924;-41
2023/11/16 12:15:24;;;;;;;;;;;;;;;9.23;100.00;101069.50;5015599;28;19925;-39
2023/11/16 12:17:49;;;;;;;;;;;;;;;9.26;100.00;101061.13;5022573;28;19940;-41
2023/11/16 12:20:15;;;;;;;;;;;;;;;9.28;100.00;101053.75;5025383;28;19918;-40
2023/11/16 12:22:40;;;;;;;;;;;;;;;9.25;100.00;101056.75;5017345;28;19971;-41
2023/11/16 12:25:09;;;;;;;;;;;;;;;9.33;100.00;101056.75;5020442;28;20367;-40
2023/11/16 12:27:39;;;;;;;;;;;;;;;9.34;100.00;101047.69;5013168;28;20291;-41
2023/11/16 12:30:06;;;;;;;;;;;;;;;9.38;100.00;101043.66;5016836;28;19918;-40
2023/11/16 12:32:31;;;;;;;;;;;;;;;9.32;100.00;101038.97;5022142;28;19920;-40